sensor_id;sensor_type;location;lat;lon;timestamp;P1;durP1;ratioP1;P2;durP2;ratioP2
78365;SDS011;67641;59.864;30.464;2024-03-22T00:01:57;4.97;;;3.47;;
78365;SDS011;67641;59.864;30.464;2024-03-22T00:04:23;10.90;;;3.50;;
78365;SDS011;67641;59.864;30.464;2024-03-22T00:06:50;6.40;;;3.30;;
78365;SDS011;67641;59.864;30.464;2024-03-22T00:09:16;5.63;;;3.60;;
78365;SDS011;67641;59.864;30.464;2024-03-22T00:11:43;6.22;;;3.25;;
78365;SDS011;67641;59.864;30.464;2024-03-22T00:14:10;5.32;;;3.47;;
78365;SDS011;67641;59.864;30.464;2024-03-22T00:16:37;5.78;;;3.33;;
78365;SDS011;67641;59.864;30.464;2024-03-22T00:19:03;7.28;;;3.72;;
78365;SDS011;67641;59.864;30.464;2024-03-22T00:21:30;6.22;;;3.38;;
78365;SDS011;67641;59.864;30.464;2024-03-22T00:23:56;8.65;;;3.55;;
78365;SDS011;67641;59.864;30.464;2024-03-22T00:26:23;4.45;;;3.25;;
78365;SDS011;67641;59.864;30.464;2024-03-22T00:28:49;6.68;;;3.60;;
78365;SDS011;67641;59.864;30.464;2024-03-22T00:31:16;6.93;;;3.53;;
78365;SDS011;67641;59.864;30.464;2024-03-22T00:33:42;6.65;;;3.03;;
78365;SDS011;67641;59.864;30.464;2024-03-22T00:36:09;6.05;;;3.70;;
78365;SDS011;67641;59.864;30.464;2024-03-22T00:38:35;7.00;;;3.10;;
78365;SDS011;67641;59.864;30.464;2024-03-22T00:41:01;5.53;;;3.38;;
78365;SDS011;67641;59.864;30.464;2024-03-22T00:43:27;5.15;;;3.20;;
78365;SDS011;67641;59.864;30.464;2024-03-22T00:45:53;6.13;;;3.30;;
78365;SDS011;67641;59.864;30.464;2024-03-22T00:48:20;4.75;;;3.05;;
78365;SDS011;67641;59.864;30.464;2024-03-22T00:50:46;6.75;;;3.55;;
78365;SDS011;67641;59.864;30.464;2024-03-22T00:53:12;5.25;;;2.80;;
78365;SDS011;67641;59.864;30.464;2024-03-22T00:55:38;5.32;;;3.10;;
78365;SDS011;67641;59.864;30.464;2024-03-22T00:58:04;5.80;;;3.30;;
78365;SDS011;67641;59.864;30.464;2024-03-22T01:00:30;6.28;;;3.30;;
78365;SDS011;67641;59.864;30.464;2024-03-22T01:02:57;6.53;;;3.13;;
78365;SDS011;67641;59.864;30.464;2024-03-22T01:05:23;7.20;;;3.25;;
78365;SDS011;67641;59.864;30.464;2024-03-22T01:07:49;6.90;;;2.85;;
78365;SDS011;67641;59.864;30.464;2024-03-22T01:10:16;4.63;;;2.75;;
78365;SDS011;67641;59.864;30.464;2024-03-22T01:12:42;5.15;;;3.13;;
78365;SDS011;67641;59.864;30.464;2024-03-22T01:15:08;5.57;;;3.22;;
78365;SDS011;67641;59.864;30.464;2024-03-22T01:17:34;5.22;;;2.55;;
78365;SDS011;67641;59.864;30.464;2024-03-22T01:20:01;5.50;;;3.38;;
78365;SDS011;67641;59.864;30.464;2024-03-22T01:22:27;5.72;;;3.20;;
78365;SDS011;67641;59.864;30.464;2024-03-22T01:24:54;8.60;;;3.10;;
78365;SDS011;67641;59.864;30.464;2024-03-22T01:27:20;4.85;;;2.95;;
78365;SDS011;67641;59.864;30.464;2024-03-22T01:29:46;5.45;;;3.10;;
78365;SDS011;67641;59.864;30.464;2024-03-22T01:32:12;7.63;;;3.70;;
78365;SDS011;67641;59.864;30.464;2024-03-22T01:34:39;7.65;;;3.25;;
78365;SDS011;67641;59.864;30.464;2024-03-22T01:37:05;6.22;;;3.10;;
78365;SDS011;67641;59.864;30.464;2024-03-22T01:39:32;5.85;;;3.03;;
78365;SDS011;67641;59.864;30.464;2024-03-22T01:41:58;7.30;;;3.30;;
78365;SDS011;67641;59.864;30.464;2024-03-22T01:44:27;6.00;;;3.10;;
78365;SDS011;67641;59.864;30.464;2024-03-22T01:46:54;5.60;;;3.20;;
78365;SDS011;67641;59.864;30.464;2024-03-22T01:49:21;5.88;;;3.42;;
78365;SDS011;67641;59.864;30.464;2024-03-22T01:51:47;4.78;;;3.33;;
78365;SDS011;67641;59.864;30.464;2024-03-22T01:54:14;4.82;;;3.13;;
78365;SDS011;67641;59.864;30.464;2024-03-22T01:56:42;6.90;;;3.50;;
78365;SDS011;67641;59.864;30.464;2024-03-22T01:59:08;5.90;;;3.08;;
78365;SDS011;67641;59.864;30.464;2024-03-22T02:01:35;7.50;;;3.55;;
78365;SDS011;67641;59.864;30.464;2024-03-22T02:04:02;6.13;;;3.22;;
78365;SDS011;67641;59.864;30.464;2024-03-22T02:06:29;6.88;;;3.08;;
78365;SDS011;67641;59.864;30.464;2024-03-22T02:08:56;6.82;;;2.83;;
78365;SDS011;67641;59.864;30.464;2024-03-22T02:11:23;5.90;;;2.83;;
78365;SDS011;67641;59.864;30.464;2024-03-22T02:13:50;5.68;;;3.67;;
78365;SDS011;67641;59.864;30.464;2024-03-22T02:16:16;5.68;;;3.17;;
78365;SDS011;67641;59.864;30.464;2024-03-22T02:18:43;5.75;;;3.28;;
78365;SDS011;67641;59.864;30.464;2024-03-22T02:21:10;5.10;;;2.83;;
78365;SDS011;67641;59.864;30.464;2024-03-22T02:23:36;8.75;;;3.42;;
78365;SDS011;67641;59.864;30.464;2024-03-22T02:26:04;6.68;;;3.10;;
78365;SDS011;67641;59.864;30.464;2024-03-22T02:28:31;6.05;;;3.22;;
78365;SDS011;67641;59.864;30.464;2024-03-22T02:31:01;7.13;;;2.97;;
78365;SDS011;67641;59.864;30.464;2024-03-22T02:33:28;5.65;;;3.05;;
78365;SDS011;67641;59.864;30.464;2024-03-22T02:35:54;5.53;;;2.85;;
78365;SDS011;67641;59.864;30.464;2024-03-22T02:38:21;5.75;;;3.20;;
78365;SDS011;67641;59.864;30.464;2024-03-22T02:40:48;5.00;;;2.60;;
78365;SDS011;67641;59.864;30.464;2024-03-22T02:43:15;6.35;;;2.92;;
78365;SDS011;67641;59.864;30.464;2024-03-22T02:45:43;5.40;;;3.10;;
78365;SDS011;67641;59.864;30.464;2024-03-22T02:48:09;8.40;;;3.17;;
78365;SDS011;67641;59.864;30.464;2024-03-22T02:50:36;5.82;;;3.00;;
78365;SDS011;67641;59.864;30.464;2024-03-22T02:53:03;4.28;;;2.60;;
78365;SDS011;67641;59.864;30.464;2024-03-22T02:55:30;5.15;;;2.60;;
78365;SDS011;67641;59.864;30.464;2024-03-22T02:58:01;5.05;;;3.20;;
78365;SDS011;67641;59.864;30.464;2024-03-22T03:00:28;6.75;;;2.88;;
78365;SDS011;67641;59.864;30.464;2024-03-22T03:02:54;5.70;;;3.45;;
78365;SDS011;67641;59.864;30.464;2024-03-22T03:05:20;4.85;;;2.80;;
78365;SDS011;67641;59.864;30.464;2024-03-22T03:07:48;5.70;;;2.97;;
78365;SDS011;67641;59.864;30.464;2024-03-22T03:10:16;5.85;;;2.97;;
78365;SDS011;67641;59.864;30.464;2024-03-22T03:12:42;6.93;;;3.00;;
78365;SDS011;67641;59.864;30.464;2024-03-22T03:15:08;4.70;;;2.85;;
78365;SDS011;67641;59.864;30.464;2024-03-22T03:17:34;7.53;;;3.42;;
78365;SDS011;67641;59.864;30.464;2024-03-22T03:20:00;6.40;;;3.58;;
78365;SDS011;67641;59.864;30.464;2024-03-22T03:22:26;6.43;;;3.20;;
78365;SDS011;67641;59.864;30.464;2024-03-22T03:24:53;4.78;;;3.15;;
78365;SDS011;67641;59.864;30.464;2024-03-22T03:27:19;8.00;;;3.40;;
78365;SDS011;67641;59.864;30.464;2024-03-22T03:29:45;8.95;;;3.55;;
78365;SDS011;67641;59.864;30.464;2024-03-22T03:32:11;8.55;;;3.65;;
78365;SDS011;67641;59.864;30.464;2024-03-22T03:34:37;5.78;;;3.60;;
78365;SDS011;67641;59.864;30.464;2024-03-22T03:37:03;5.25;;;2.83;;
78365;SDS011;67641;59.864;30.464;2024-03-22T03:39:29;6.25;;;3.53;;
78365;SDS011;67641;59.864;30.464;2024-03-22T03:41:55;7.25;;;3.33;;
78365;SDS011;67641;59.864;30.464;2024-03-22T03:44:21;6.03;;;3.10;;
78365;SDS011;67641;59.864;30.464;2024-03-22T03:46:47;8.20;;;3.63;;
78365;SDS011;67641;59.864;30.464;2024-03-22T03:49:13;7.47;;;3.38;;
78365;SDS011;67641;59.864;30.464;2024-03-22T03:51:40;5.93;;;3.33;;
78365;SDS011;67641;59.864;30.464;2024-03-22T03:54:06;9.98;;;3.33;;
78365;SDS011;67641;59.864;30.464;2024-03-22T03:56:32;8.05;;;3.50;;
78365;SDS011;67641;59.864;30.464;2024-03-22T03:58:58;5.10;;;3.10;;
78365;SDS011;67641;59.864;30.464;2024-03-22T04:01:24;5.70;;;2.90;;
78365;SDS011;67641;59.864;30.464;2024-03-22T04:03:50;5.18;;;2.97;;
78365;SDS011;67641;59.864;30.464;2024-03-22T04:06:17;6.07;;;3.20;;
78365;SDS011;67641;59.864;30.464;2024-03-22T04:08:43;5.95;;;3.30;;
78365;SDS011;67641;59.864;30.464;2024-03-22T04:11:09;7.53;;;3.63;;
78365;SDS011;67641;59.864;30.464;2024-03-22T04:13:37;6.05;;;3.53;;
78365;SDS011;67641;59.864;30.464;2024-03-22T04:16:03;6.47;;;3.15;;
78365;SDS011;67641;59.864;30.464;2024-03-22T04:18:30;7.22;;;3.20;;
78365;SDS011;67641;59.864;30.464;2024-03-22T04:20:57;6.40;;;3.60;;
78365;SDS011;67641;59.864;30.464;2024-03-22T04:23:24;5.85;;;3.35;;
78365;SDS011;67641;59.864;30.464;2024-03-22T04:25:54;9.40;;;3.72;;
78365;SDS011;67641;59.864;30.464;2024-03-22T04:28:25;6.45;;;3.30;;
78365;SDS011;67641;59.864;30.464;2024-03-22T04:30:58;6.65;;;3.35;;
78365;SDS011;67641;59.864;30.464;2024-03-22T04:33:34;10.23;;;3.22;;
78365;SDS011;67641;59.864;30.464;2024-03-22T04:36:01;9.85;;;3.80;;
78365;SDS011;67641;59.864;30.464;2024-03-22T04:38:28;8.07;;;3.20;;
78365;SDS011;67641;59.864;30.464;2024-03-22T04:40:55;8.50;;;2.72;;
78365;SDS011;67641;59.864;30.464;2024-03-22T04:43:24;6.40;;;3.38;;
78365;SDS011;67641;59.864;30.464;2024-03-22T04:45:51;13.10;;;3.75;;
78365;SDS011;67641;59.864;30.464;2024-03-22T04:48:18;12.15;;;3.85;;
78365;SDS011;67641;59.864;30.464;2024-03-22T04:50:48;7.68;;;3.15;;
78365;SDS011;67641;59.864;30.464;2024-03-22T04:53:16;6.60;;;3.60;;
78365;SDS011;67641;59.864;30.464;2024-03-22T04:55:43;13.35;;;3.75;;
78365;SDS011;67641;59.864;30.464;2024-03-22T04:58:13;8.13;;;3.85;;
78365;SDS011;67641;59.864;30.464;2024-03-22T05:00:41;8.55;;;3.80;;
78365;SDS011;67641;59.864;30.464;2024-03-22T05:03:07;11.65;;;4.10;;
78365;SDS011;67641;59.864;30.464;2024-03-22T05:05:34;8.63;;;5.07;;
78365;SDS011;67641;59.864;30.464;2024-03-22T05:08:01;11.50;;;4.18;;
78365;SDS011;67641;59.864;30.464;2024-03-22T05:10:28;9.88;;;4.40;;
78365;SDS011;67641;59.864;30.464;2024-03-22T05:12:55;8.43;;;4.18;;
78365;SDS011;67641;59.864;30.464;2024-03-22T05:15:22;11.57;;;4.10;;
78365;SDS011;67641;59.864;30.464;2024-03-22T05:17:48;6.57;;;3.53;;
78365;SDS011;67641;59.864;30.464;2024-03-22T05:20:15;9.40;;;3.60;;
78365;SDS011;67641;59.864;30.464;2024-03-22T05:22:42;7.57;;;3.63;;
78365;SDS011;67641;59.864;30.464;2024-03-22T05:25:08;8.40;;;3.50;;
78365;SDS011;67641;59.864;30.464;2024-03-22T05:27:35;5.60;;;2.72;;
78365;SDS011;67641;59.864;30.464;2024-03-22T05:30:02;7.57;;;3.47;;
78365;SDS011;67641;59.864;30.464;2024-03-22T05:32:31;7.00;;;3.42;;
78365;SDS011;67641;59.864;30.464;2024-03-22T05:34:57;5.90;;;2.92;;
78365;SDS011;67641;59.864;30.464;2024-03-22T05:37:23;5.82;;;3.50;;
78365;SDS011;67641;59.864;30.464;2024-03-22T05:39:49;9.82;;;3.50;;
78365;SDS011;67641;59.864;30.464;2024-03-22T05:42:16;6.88;;;3.80;;
78365;SDS011;67641;59.864;30.464;2024-03-22T05:44:42;10.50;;;3.50;;
78365;SDS011;67641;59.864;30.464;2024-03-22T05:47:09;7.18;;;3.65;;
78365;SDS011;67641;59.864;30.464;2024-03-22T05:49:35;5.82;;;3.60;;
78365;SDS011;67641;59.864;30.464;2024-03-22T05:52:01;7.18;;;4.03;;
78365;SDS011;67641;59.864;30.464;2024-03-22T05:54:28;7.53;;;3.75;;
78365;SDS011;67641;59.864;30.464;2024-03-22T05:56:55;10.15;;;4.00;;
78365;SDS011;67641;59.864;30.464;2024-03-22T05:59:21;8.43;;;3.65;;
78365;SDS011;67641;59.864;30.464;2024-03-22T06:01:47;9.63;;;3.50;;
78365;SDS011;67641;59.864;30.464;2024-03-22T06:04:14;8.95;;;3.20;;
78365;SDS011;67641;59.864;30.464;2024-03-22T06:06:40;6.10;;;3.20;;
78365;SDS011;67641;59.864;30.464;2024-03-22T06:09:07;12.35;;;3.65;;
78365;SDS011;67641;59.864;30.464;2024-03-22T06:11:38;14.07;;;3.47;;
78365;SDS011;67641;59.864;30.464;2024-03-22T06:14:05;10.00;;;3.10;;
78365;SDS011;67641;59.864;30.464;2024-03-22T06:16:31;4.47;;;2.50;;
78365;SDS011;67641;59.864;30.464;2024-03-22T06:18:57;6.15;;;2.35;;
78365;SDS011;67641;59.864;30.464;2024-03-22T06:21:23;5.25;;;2.10;;
78365;SDS011;67641;59.864;30.464;2024-03-22T06:23:51;7.45;;;2.28;;
78365;SDS011;67641;59.864;30.464;2024-03-22T06:26:17;6.32;;;2.00;;
78365;SDS011;67641;59.864;30.464;2024-03-22T06:28:43;4.57;;;1.85;;
78365;SDS011;67641;59.864;30.464;2024-03-22T06:31:10;7.80;;;2.08;;
78365;SDS011;67641;59.864;30.464;2024-03-22T06:33:36;6.13;;;1.75;;
78365;SDS011;67641;59.864;30.464;2024-03-22T06:36:02;3.78;;;1.90;;
78365;SDS011;67641;59.864;30.464;2024-03-22T06:38:31;5.60;;;1.90;;
78365;SDS011;67641;59.864;30.464;2024-03-22T06:40:57;4.35;;;1.65;;
78365;SDS011;67641;59.864;30.464;2024-03-22T06:43:24;5.40;;;1.92;;
78365;SDS011;67641;59.864;30.464;2024-03-22T06:45:51;6.22;;;1.73;;
78365;SDS011;67641;59.864;30.464;2024-03-22T06:48:17;6.25;;;2.40;;
78365;SDS011;67641;59.864;30.464;2024-03-22T06:50:43;5.38;;;1.90;;
78365;SDS011;67641;59.864;30.464;2024-03-22T06:53:09;6.75;;;1.77;;
78365;SDS011;67641;59.864;30.464;2024-03-22T06:55:36;6.78;;;1.92;;
78365;SDS011;67641;59.864;30.464;2024-03-22T06:58:02;8.18;;;1.73;;
78365;SDS011;67641;59.864;30.464;2024-03-22T07:00:28;10.38;;;1.90;;
78365;SDS011;67641;59.864;30.464;2024-03-22T07:02:54;6.50;;;2.00;;
78365;SDS011;67641;59.864;30.464;2024-03-22T07:05:21;5.85;;;1.77;;
78365;SDS011;67641;59.864;30.464;2024-03-22T07:07:49;4.88;;;1.63;;
78365;SDS011;67641;59.864;30.464;2024-03-22T07:10:21;6.63;;;1.80;;
78365;SDS011;67641;59.864;30.464;2024-03-22T07:12:48;5.18;;;1.70;;
78365;SDS011;67641;59.864;30.464;2024-03-22T07:15:14;5.15;;;1.63;;
78365;SDS011;67641;59.864;30.464;2024-03-22T07:17:41;4.03;;;1.40;;
78365;SDS011;67641;59.864;30.464;2024-03-22T07:20:07;7.10;;;1.60;;
78365;SDS011;67641;59.864;30.464;2024-03-22T07:22:33;6.47;;;2.55;;
78365;SDS011;67641;59.864;30.464;2024-03-22T07:24:59;5.90;;;2.90;;
78365;SDS011;67641;59.864;30.464;2024-03-22T07:27:25;4.72;;;1.60;;
78365;SDS011;67641;59.864;30.464;2024-03-22T07:29:54;4.97;;;1.20;;
78365;SDS011;67641;59.864;30.464;2024-03-22T07:32:21;4.82;;;1.33;;
78365;SDS011;67641;59.864;30.464;2024-03-22T07:34:47;3.78;;;1.55;;
78365;SDS011;67641;59.864;30.464;2024-03-22T07:37:13;4.03;;;1.67;;
78365;SDS011;67641;59.864;30.464;2024-03-22T07:39:40;5.13;;;1.67;;
78365;SDS011;67641;59.864;30.464;2024-03-22T07:42:06;3.78;;;1.60;;
78365;SDS011;67641;59.864;30.464;2024-03-22T07:44:32;6.10;;;1.67;;
78365;SDS011;67641;59.864;30.464;2024-03-22T07:46:58;4.35;;;1.50;;
78365;SDS011;67641;59.864;30.464;2024-03-22T07:49:24;3.05;;;1.58;;
78365;SDS011;67641;59.864;30.464;2024-03-22T07:51:50;2.88;;;1.75;;
78365;SDS011;67641;59.864;30.464;2024-03-22T07:54:18;4.22;;;1.50;;
78365;SDS011;67641;59.864;30.464;2024-03-22T07:56:46;2.83;;;1.42;;
78365;SDS011;67641;59.864;30.464;2024-03-22T07:59:12;3.22;;;1.33;;
78365;SDS011;67641;59.864;30.464;2024-03-22T08:01:38;7.07;;;1.35;;
78365;SDS011;67641;59.864;30.464;2024-03-22T08:04:04;4.05;;;1.40;;
78365;SDS011;67641;59.864;30.464;2024-03-22T08:06:31;3.92;;;1.70;;
78365;SDS011;67641;59.864;30.464;2024-03-22T08:08:57;3.88;;;1.58;;
78365;SDS011;67641;59.864;30.464;2024-03-22T08:11:23;5.22;;;1.30;;
78365;SDS011;67641;59.864;30.464;2024-03-22T08:13:49;3.92;;;1.60;;
78365;SDS011;67641;59.864;30.464;2024-03-22T08:16:15;3.35;;;1.10;;
78365;SDS011;67641;59.864;30.464;2024-03-22T08:18:41;4.80;;;1.50;;
78365;SDS011;67641;59.864;30.464;2024-03-22T08:21:07;3.28;;;1.10;;
78365;SDS011;67641;59.864;30.464;2024-03-22T08:23:34;2.67;;;1.30;;
78365;SDS011;67641;59.864;30.464;2024-03-22T08:26:00;3.70;;;1.17;;
78365;SDS011;67641;59.864;30.464;2024-03-22T08:28:26;2.47;;;1.10;;
78365;SDS011;67641;59.864;30.464;2024-03-22T08:30:52;4.03;;;1.23;;
78365;SDS011;67641;59.864;30.464;2024-03-22T08:33:18;3.28;;;1.00;;
78365;SDS011;67641;59.864;30.464;2024-03-22T08:35:44;2.35;;;1.23;;
78365;SDS011;67641;59.864;30.464;2024-03-22T08:38:10;4.43;;;1.40;;
78365;SDS011;67641;59.864;30.464;2024-03-22T08:40:40;2.60;;;1.20;;
78365;SDS011;67641;59.864;30.464;2024-03-22T08:43:06;3.75;;;1.10;;
78365;SDS011;67641;59.864;30.464;2024-03-22T08:45:35;3.42;;;1.38;;
78365;SDS011;67641;59.864;30.464;2024-03-22T08:48:01;3.92;;;1.42;;
78365;SDS011;67641;59.864;30.464;2024-03-22T08:50:28;4.95;;;1.65;;
78365;SDS011;67641;59.864;30.464;2024-03-22T08:52:54;3.38;;;1.30;;
78365;SDS011;67641;59.864;30.464;2024-03-22T08:55:20;3.72;;;1.58;;
78365;SDS011;67641;59.864;30.464;2024-03-22T08:57:46;3.42;;;1.15;;
78365;SDS011;67641;59.864;30.464;2024-03-22T09:00:12;3.75;;;1.45;;
78365;SDS011;67641;59.864;30.464;2024-03-22T09:02:39;4.82;;;1.50;;
78365;SDS011;67641;59.864;30.464;2024-03-22T09:05:05;4.78;;;1.20;;
78365;SDS011;67641;59.864;30.464;2024-03-22T09:07:34;2.15;;;1.13;;
78365;SDS011;67641;59.864;30.464;2024-03-22T09:10:00;5.25;;;1.60;;
78365;SDS011;67641;59.864;30.464;2024-03-22T09:12:26;3.58;;;1.70;;
78365;SDS011;67641;59.864;30.464;2024-03-22T09:14:53;4.25;;;1.23;;
78365;SDS011;67641;59.864;30.464;2024-03-22T09:17:19;3.33;;;1.10;;
78365;SDS011;67641;59.864;30.464;2024-03-22T09:19:45;4.40;;;1.33;;
78365;SDS011;67641;59.864;30.464;2024-03-22T09:22:11;3.17;;;1.10;;
78365;SDS011;67641;59.864;30.464;2024-03-22T09:24:37;3.50;;;1.25;;
78365;SDS011;67641;59.864;30.464;2024-03-22T09:27:04;4.82;;;1.27;;
78365;SDS011;67641;59.864;30.464;2024-03-22T09:29:34;5.97;;;0.95;;
78365;SDS011;67641;59.864;30.464;2024-03-22T09:32:01;2.03;;;0.80;;
78365;SDS011;67641;59.864;30.464;2024-03-22T09:34:28;3.75;;;1.08;;
78365;SDS011;67641;59.864;30.464;2024-03-22T09:36:57;3.33;;;1.33;;
78365;SDS011;67641;59.864;30.464;2024-03-22T09:39:23;3.53;;;0.93;;
78365;SDS011;67641;59.864;30.464;2024-03-22T09:41:50;4.20;;;1.35;;
78365;SDS011;67641;59.864;30.464;2024-03-22T09:44:18;2.42;;;0.80;;
78365;SDS011;67641;59.864;30.464;2024-03-22T09:46:48;2.08;;;1.02;;
78365;SDS011;67641;59.864;30.464;2024-03-22T09:49:16;4.53;;;1.00;;
78365;SDS011;67641;59.864;30.464;2024-03-22T09:51:43;1.95;;;0.80;;
78365;SDS011;67641;59.864;30.464;2024-03-22T09:54:10;5.60;;;1.30;;
78365;SDS011;67641;59.864;30.464;2024-03-22T09:56:39;4.70;;;1.40;;
78365;SDS011;67641;59.864;30.464;2024-03-22T09:59:05;2.45;;;1.05;;
78365;SDS011;67641;59.864;30.464;2024-03-22T10:01:38;3.65;;;1.00;;
78365;SDS011;67641;59.864;30.464;2024-03-22T10:04:05;3.22;;;1.00;;
78365;SDS011;67641;59.864;30.464;2024-03-22T10:06:32;6.40;;;1.15;;
78365;SDS011;67641;59.864;30.464;2024-03-22T10:09:00;4.88;;;1.00;;
78365;SDS011;67641;59.864;30.464;2024-03-22T10:11:27;6.10;;;0.90;;
78365;SDS011;67641;59.864;30.464;2024-03-22T10:13:53;4.75;;;1.25;;
78365;SDS011;67641;59.864;30.464;2024-03-22T10:16:21;4.35;;;0.95;;
78365;SDS011;67641;59.864;30.464;2024-03-22T10:18:47;6.28;;;1.33;;
78365;SDS011;67641;59.864;30.464;2024-03-22T10:21:16;5.72;;;1.20;;
78365;SDS011;67641;59.864;30.464;2024-03-22T10:23:43;5.18;;;1.05;;
78365;SDS011;67641;59.864;30.464;2024-03-22T10:26:12;4.07;;;1.15;;
78365;SDS011;67641;59.864;30.464;2024-03-22T10:28:44;3.00;;;1.13;;
78365;SDS011;67641;59.864;30.464;2024-03-22T10:31:14;5.43;;;1.33;;
78365;SDS011;67641;59.864;30.464;2024-03-22T10:33:40;4.47;;;1.20;;
78365;SDS011;67641;59.864;30.464;2024-03-22T10:36:07;3.38;;;1.30;;
78365;SDS011;67641;59.864;30.464;2024-03-22T10:38:35;7.20;;;1.50;;
78365;SDS011;67641;59.864;30.464;2024-03-22T10:41:03;4.07;;;1.50;;
78365;SDS011;67641;59.864;30.464;2024-03-22T10:43:30;4.47;;;1.45;;
78365;SDS011;67641;59.864;30.464;2024-03-22T10:46:00;5.20;;;1.10;;
78365;SDS011;67641;59.864;30.464;2024-03-22T10:48:30;5.15;;;1.30;;
78365;SDS011;67641;59.864;30.464;2024-03-22T10:51:02;6.22;;;1.38;;
78365;SDS011;67641;59.864;30.464;2024-03-22T10:53:30;7.50;;;1.10;;
78365;SDS011;67641;59.864;30.464;2024-03-22T10:55:57;7.70;;;1.08;;
78365;SDS011;67641;59.864;30.464;2024-03-22T10:58:26;3.85;;;1.00;;
78365;SDS011;67641;59.864;30.464;2024-03-22T11:00:52;6.38;;;1.33;;
78365;SDS011;67641;59.864;30.464;2024-03-22T11:03:20;3.60;;;1.40;;
78365;SDS011;67641;59.864;30.464;2024-03-22T11:05:49;5.10;;;1.42;;
78365;SDS011;67641;59.864;30.464;2024-03-22T11:08:26;3.42;;;1.20;;
78365;SDS011;67641;59.864;30.464;2024-03-22T11:10:53;4.30;;;0.82;;
78365;SDS011;67641;59.864;30.464;2024-03-22T11:13:22;4.13;;;1.92;;
78365;SDS011;67641;59.864;30.464;2024-03-22T11:15:49;4.28;;;1.50;;
78365;SDS011;67641;59.864;30.464;2024-03-22T11:18:17;2.72;;;1.10;;
78365;SDS011;67641;59.864;30.464;2024-03-22T11:20:43;2.78;;;1.00;;
78365;SDS011;67641;59.864;30.464;2024-03-22T11:23:13;4.10;;;1.10;;
78365;SDS011;67641;59.864;30.464;2024-03-22T11:25:39;5.15;;;1.10;;
78365;SDS011;67641;59.864;30.464;2024-03-22T11:28:06;3.08;;;1.10;;
78365;SDS011;67641;59.864;30.464;2024-03-22T11:30:33;4.22;;;1.17;;
78365;SDS011;67641;59.864;30.464;2024-03-22T11:33:03;3.67;;;1.15;;
78365;SDS011;67641;59.864;30.464;2024-03-22T11:35:34;3.97;;;1.10;;
78365;SDS011;67641;59.864;30.464;2024-03-22T11:38:00;4.90;;;1.00;;
78365;SDS011;67641;59.864;30.464;2024-03-22T11:40:27;4.60;;;1.02;;
78365;SDS011;67641;59.864;30.464;2024-03-22T11:42:56;4.53;;;1.20;;
78365;SDS011;67641;59.864;30.464;2024-03-22T11:45:23;2.47;;;0.80;;
78365;SDS011;67641;59.864;30.464;2024-03-22T11:47:52;3.75;;;1.70;;
78365;SDS011;67641;59.864;30.464;2024-03-22T11:50:19;5.07;;;1.90;;
78365;SDS011;67641;59.864;30.464;2024-03-22T11:52:45;6.78;;;1.88;;
78365;SDS011;67641;59.864;30.464;2024-03-22T11:55:16;6.57;;;1.38;;
78365;SDS011;67641;59.864;30.464;2024-03-22T11:57:47;5.47;;;1.10;;
78365;SDS011;67641;59.864;30.464;2024-03-22T12:00:16;3.35;;;0.98;;
78365;SDS011;67641;59.864;30.464;2024-03-22T12:02:44;4.75;;;1.15;;
78365;SDS011;67641;59.864;30.464;2024-03-22T12:05:11;2.80;;;0.88;;
78365;SDS011;67641;59.864;30.464;2024-03-22T12:07:39;3.58;;;1.02;;
78365;SDS011;67641;59.864;30.464;2024-03-22T12:10:06;3.20;;;1.30;;
78365;SDS011;67641;59.864;30.464;2024-03-22T12:12:33;4.25;;;1.38;;
78365;SDS011;67641;59.864;30.464;2024-03-22T12:14:59;6.25;;;1.42;;
78365;SDS011;67641;59.864;30.464;2024-03-22T12:17:26;4.45;;;1.20;;
78365;SDS011;67641;59.864;30.464;2024-03-22T12:19:54;4.15;;;1.58;;
78365;SDS011;67641;59.864;30.464;2024-03-22T12:22:24;4.00;;;1.30;;
78365;SDS011;67641;59.864;30.464;2024-03-22T12:24:51;5.57;;;2.00;;
78365;SDS011;67641;59.864;30.464;2024-03-22T12:27:18;6.70;;;1.83;;
78365;SDS011;67641;59.864;30.464;2024-03-22T12:29:44;4.70;;;1.92;;
78365;SDS011;67641;59.864;30.464;2024-03-22T12:32:10;4.82;;;2.30;;
78365;SDS011;67641;59.864;30.464;2024-03-22T12:34:37;4.15;;;1.80;;
78365;SDS011;67641;59.864;30.464;2024-03-22T12:37:03;5.60;;;1.25;;
78365;SDS011;67641;59.864;30.464;2024-03-22T12:39:30;5.35;;;1.77;;
78365;SDS011;67641;59.864;30.464;2024-03-22T12:41:58;6.18;;;1.90;;
78365;SDS011;67641;59.864;30.464;2024-03-22T12:44:25;3.33;;;1.25;;
78365;SDS011;67641;59.864;30.464;2024-03-22T12:46:51;3.90;;;1.20;;
78365;SDS011;67641;59.864;30.464;2024-03-22T12:49:18;4.07;;;1.38;;
78365;SDS011;67641;59.864;30.464;2024-03-22T12:51:45;4.82;;;1.30;;
78365;SDS011;67641;59.864;30.464;2024-03-22T12:54:11;3.67;;;1.30;;
78365;SDS011;67641;59.864;30.464;2024-03-22T12:56:40;3.47;;;1.25;;
78365;SDS011;67641;59.864;30.464;2024-03-22T12:59:07;5.22;;;1.30;;
78365;SDS011;67641;59.864;30.464;2024-03-22T13:01:33;5.32;;;1.35;;
78365;SDS011;67641;59.864;30.464;2024-03-22T13:04:02;4.75;;;1.10;;
78365;SDS011;67641;59.864;30.464;2024-03-22T13:06:28;5.88;;;1.55;;
78365;SDS011;67641;59.864;30.464;2024-03-22T13:08:55;3.70;;;1.13;;
78365;SDS011;67641;59.864;30.464;2024-03-22T13:11:21;3.92;;;1.10;;
78365;SDS011;67641;59.864;30.464;2024-03-22T13:13:48;3.67;;;1.45;;
78365;SDS011;67641;59.864;30.464;2024-03-22T13:16:14;5.72;;;2.03;;
78365;SDS011;67641;59.864;30.464;2024-03-22T13:18:41;3.55;;;1.60;;
78365;SDS011;67641;59.864;30.464;2024-03-22T13:21:09;6.10;;;1.52;;
78365;SDS011;67641;59.864;30.464;2024-03-22T13:23:37;3.72;;;1.08;;
78365;SDS011;67641;59.864;30.464;2024-03-22T13:26:04;5.28;;;1.30;;
78365;SDS011;67641;59.864;30.464;2024-03-22T13:28:31;3.75;;;1.23;;
78365;SDS011;67641;59.864;30.464;2024-03-22T13:31:04;3.65;;;1.52;;
78365;SDS011;67641;59.864;30.464;2024-03-22T13:33:34;4.53;;;1.60;;
78365;SDS011;67641;59.864;30.464;2024-03-22T13:36:01;4.70;;;1.90;;
78365;SDS011;67641;59.864;30.464;2024-03-22T13:38:28;3.53;;;1.73;;
78365;SDS011;67641;59.864;30.464;2024-03-22T13:40:55;4.30;;;1.52;;
78365;SDS011;67641;59.864;30.464;2024-03-22T13:43:25;4.97;;;1.80;;
78365;SDS011;67641;59.864;30.464;2024-03-22T13:45:53;4.18;;;1.75;;
78365;SDS011;67641;59.864;30.464;2024-03-22T13:48:21;3.17;;;1.40;;
78365;SDS011;67641;59.864;30.464;2024-03-22T13:50:53;4.53;;;1.25;;
78365;SDS011;67641;59.864;30.464;2024-03-22T13:53:20;4.43;;;1.27;;
78365;SDS011;67641;59.864;30.464;2024-03-22T13:55:50;2.92;;;1.30;;
78365;SDS011;67641;59.864;30.464;2024-03-22T13:58:18;3.17;;;1.13;;
78365;SDS011;67641;59.864;30.464;2024-03-22T14:00:45;3.17;;;1.13;;
78365;SDS011;67641;59.864;30.464;2024-03-22T14:03:12;4.18;;;1.20;;
78365;SDS011;67641;59.864;30.464;2024-03-22T14:05:38;4.95;;;1.50;;
78365;SDS011;67641;59.864;30.464;2024-03-22T14:08:05;3.92;;;1.25;;
78365;SDS011;67641;59.864;30.464;2024-03-22T14:10:31;4.65;;;1.50;;
78365;SDS011;67641;59.864;30.464;2024-03-22T14:12:58;6.88;;;1.15;;
78365;SDS011;67641;59.864;30.464;2024-03-22T14:15:25;3.60;;;1.10;;
78365;SDS011;67641;59.864;30.464;2024-03-22T14:17:52;3.80;;;1.27;;
78365;SDS011;67641;59.864;30.464;2024-03-22T14:20:19;3.00;;;1.27;;
78365;SDS011;67641;59.864;30.464;2024-03-22T14:22:45;6.28;;;1.23;;
78365;SDS011;67641;59.864;30.464;2024-03-22T14:25:13;4.88;;;1.02;;
78365;SDS011;67641;59.864;30.464;2024-03-22T14:27:39;3.70;;;1.35;;
78365;SDS011;67641;59.864;30.464;2024-03-22T14:30:11;5.07;;;1.30;;
78365;SDS011;67641;59.864;30.464;2024-03-22T14:32:39;4.38;;;1.70;;